sensor_id;sensor_type;location;lat;lon;timestamp;temperature;humidity
4107;DHT22;21906;50.812;7.132;2023-04-24T00:00:16;14.30;63.10
4107;DHT22;21906;50.812;7.132;2023-04-24T00:02:43;14.20;63.10
4107;DHT22;21906;50.812;7.132;2023-04-24T00:05:16;14.20;63.50
4107;DHT22;21906;50.812;7.132;2023-04-24T00:07:43;14.30;63.30
4107;DHT22;21906;50.812;7.132;2023-04-24T00:10:10;14.20;63.40
4107;DHT22;21906;50.812;7.132;2023-04-24T00:12:37;14.20;63.40
4107;DHT22;21906;50.812;7.132;2023-04-24T00:15:03;14.30;63.40
4107;DHT22;21906;50.812;7.132;2023-04-24T00:17:29;14.30;63.30
4107;DHT22;21906;50.812;7.132;2023-04-24T00:19:54;14.30;63.40
4107;DHT22;21906;50.812;7.132;2023-04-24T00:22:29;14.20;63.50
4107;DHT22;21906;50.812;7.132;2023-04-24T00:24:55;14.20;63.70
4107;DHT22;21906;50.812;7.132;2023-04-24T00:27:21;14.20;63.50
4107;DHT22;21906;50.812;7.132;2023-04-24T00:29:47;14.10;63.80
4107;DHT22;21906;50.812;7.132;2023-04-24T00:32:13;14.10;63.80
4107;DHT22;21906;50.812;7.132;2023-04-24T00:34:39;14.10;64.10
4107;DHT22;21906;50.812;7.132;2023-04-24T00:37:05;14.10;64.00
4107;DHT22;21906;50.812;7.132;2023-04-24T00:39:31;14.10;64.10
4107;DHT22;21906;50.812;7.132;2023-04-24T00:41:57;14.10;64.20
4107;DHT22;21906;50.812;7.132;2023-04-24T00:44:23;14.10;64.00
4107;DHT22;21906;50.812;7.132;2023-04-24T00:46:49;14.20;63.80
4107;DHT22;21906;50.812;7.132;2023-04-24T00:49:18;14.20;64.00
4107;DHT22;21906;50.812;7.132;2023-04-24T00:51:44;14.20;64.00
4107;DHT22;21906;50.812;7.132;2023-04-24T00:54:11;14.20;64.00
4107;DHT22;21906;50.812;7.132;2023-04-24T00:56:37;14.20;64.10
4107;DHT22;21906;50.812;7.132;2023-04-24T00:59:03;14.20;64.20
4107;DHT22;21906;50.812;7.132;2023-04-24T01:01:29;14.20;64.30
4107;DHT22;21906;50.812;7.132;2023-04-24T01:03:56;14.20;64.30
4107;DHT22;21906;50.812;7.132;2023-04-24T01:06:23;14.20;64.20
4107;DHT22;21906;50.812;7.132;2023-04-24T01:08:52;14.20;64.00
4107;DHT22;21906;50.812;7.132;2023-04-24T01:11:18;14.20;64.10
4107;DHT22;21906;50.812;7.132;2023-04-24T01:13:45;14.20;64.40
4107;DHT22;21906;50.812;7.132;2023-04-24T01:16:11;14.20;64.60
4107;DHT22;21906;50.812;7.132;2023-04-24T01:18:37;14.30;64.40
4107;DHT22;21906;50.812;7.132;2023-04-24T01:21:04;14.20;64.10
4107;DHT22;21906;50.812;7.132;2023-04-24T01:23:30;14.20;64.20
4107;DHT22;21906;50.812;7.132;2023-04-24T01:25:56;14.20;64.30
4107;DHT22;21906;50.812;7.132;2023-04-24T01:28:22;14.30;64.50
4107;DHT22;21906;50.812;7.132;2023-04-24T01:30:48;14.30;64.00
4107;DHT22;21906;50.812;7.132;2023-04-24T01:33:14;14.10;64.50
4107;DHT22;21906;50.812;7.132;2023-04-24T01:35:40;13.90;65.00
4107;DHT22;21906;50.812;7.132;2023-04-24T01:38:05;13.90;65.10
4107;DHT22;21906;50.812;7.132;2023-04-24T01:40:32;13.80;64.30
4107;DHT22;21906;50.812;7.132;2023-04-24T01:42:58;13.50;65.20
4107;DHT22;21906;50.812;7.132;2023-04-24T01:45:24;13.50;64.80
4107;DHT22;21906;50.812;7.132;2023-04-24T01:47:50;13.50;63.60
4107;DHT22;21906;50.812;7.132;2023-04-24T01:50:16;13.40;63.20
4107;DHT22;21906;50.812;7.132;2023-04-24T01:52:42;13.40;62.50
4107;DHT22;21906;50.812;7.132;2023-04-24T01:55:08;13.20;61.40
4107;DHT22;21906;50.812;7.132;2023-04-24T01:57:35;13.10;61.50
4107;DHT22;21906;50.812;7.132;2023-04-24T02:00:01;13.10;60.80
4107;DHT22;21906;50.812;7.132;2023-04-24T02:02:29;13.10;60.30
4107;DHT22;21906;50.812;7.132;2023-04-24T02:04:56;13.10;60.30
4107;DHT22;21906;50.812;7.132;2023-04-24T02:07:21;12.90;60.90
4107;DHT22;21906;50.812;7.132;2023-04-24T02:09:47;13.00;60.30
4107;DHT22;21906;50.812;7.132;2023-04-24T02:12:13;13.00;59.80
4107;DHT22;21906;50.812;7.132;2023-04-24T02:14:39;12.90;60.10
4107;DHT22;21906;50.812;7.132;2023-04-24T02:17:04;12.90;60.30
4107;DHT22;21906;50.812;7.132;2023-04-24T02:19:30;12.90;60.60
4107;DHT22;21906;50.812;7.132;2023-04-24T02:21:56;12.80;61.00
4107;DHT22;21906;50.812;7.132;2023-04-24T02:24:22;12.80;61.40
4107;DHT22;21906;50.812;7.132;2023-04-24T02:26:47;12.80;61.40
4107;DHT22;21906;50.812;7.132;2023-04-24T02:29:13;12.70;60.70
4107;DHT22;21906;50.812;7.132;2023-04-24T02:31:38;12.60;60.80
4107;DHT22;21906;50.812;7.132;2023-04-24T02:34:04;12.40;61.70
4107;DHT22;21906;50.812;7.132;2023-04-24T02:36:30;12.40;61.80
4107;DHT22;21906;50.812;7.132;2023-04-24T02:38:55;12.40;62.00
4107;DHT22;21906;50.812;7.132;2023-04-24T02:41:21;12.40;62.20
4107;DHT22;21906;50.812;7.132;2023-04-24T02:43:46;12.40;61.90
4107;DHT22;21906;50.812;7.132;2023-04-24T02:46:12;12.30;61.80
4107;DHT22;21906;50.812;7.132;2023-04-24T02:48:38;12.10;62.00
4107;DHT22;21906;50.812;7.132;2023-04-24T02:51:04;11.90;62.30
4107;DHT22;21906;50.812;7.132;2023-04-24T02:53:29;11.90;61.70
4107;DHT22;21906;50.812;7.132;2023-04-24T02:55:56;11.90;61.90
4107;DHT22;21906;50.812;7.132;2023-04-24T02:58:22;11.70;62.20
4107;DHT22;21906;50.812;7.132;2023-04-24T03:00:47;11.70;62.20
4107;DHT22;21906;50.812;7.132;2023-04-24T03:03:13;11.70;62.40
4107;DHT22;21906;50.812;7.132;2023-04-24T03:05:39;11.70;62.30
4107;DHT22;21906;50.812;7.132;2023-04-24T03:08:05;11.70;61.90
4107;DHT22;21906;50.812;7.132;2023-04-24T03:10:31;11.60;62.00
4107;DHT22;21906;50.812;7.132;2023-04-24T03:12:57;11.70;61.50
4107;DHT22;21906;50.812;7.132;2023-04-24T03:15:23;11.60;61.70
4107;DHT22;21906;50.812;7.132;2023-04-24T03:17:48;11.50;62.20
4107;DHT22;21906;50.812;7.132;2023-04-24T03:20:14;11.60;62.60
4107;DHT22;21906;50.812;7.132;2023-04-24T03:22:40;11.60;62.70
4107;DHT22;21906;50.812;7.132;2023-04-24T03:25:06;11.70;61.60
4107;DHT22;21906;50.812;7.132;2023-04-24T03:27:33;11.70;61.30
4107;DHT22;21906;50.812;7.132;2023-04-24T03:29:59;11.70;61.50
4107;DHT22;21906;50.812;7.132;2023-04-24T03:32:26;11.80;61.60
4107;DHT22;21906;50.812;7.132;2023-04-24T03:34:51;11.70;61.20
4107;DHT22;21906;50.812;7.132;2023-04-24T03:37:17;11.70;61.70
4107;DHT22;21906;50.812;7.132;2023-04-24T03:39:43;11.70;61.80
4107;DHT22;21906;50.812;7.132;2023-04-24T03:42:08;11.70;61.80
4107;DHT22;21906;50.812;7.132;2023-04-24T03:44:35;11.80;61.40
4107;DHT22;21906;50.812;7.132;2023-04-24T03:47:01;11.60;61.50
4107;DHT22;21906;50.812;7.132;2023-04-24T03:49:27;11.60;61.60
4107;DHT22;21906;50.812;7.132;2023-04-24T03:51:52;11.60;61.40
4107;DHT22;21906;50.812;7.132;2023-04-24T03:54:18;11.50;61.30
4107;DHT22;21906;50.812;7.132;2023-04-24T03:56:44;11.50;61.70
4107;DHT22;21906;50.812;7.132;2023-04-24T03:59:10;11.60;61.70
4107;DHT22;21906;50.812;7.132;2023-04-24T04:01:36;11.60;61.60
4107;DHT22;21906;50.812;7.132;2023-04-24T04:04:03;11.70;61.60
4107;DHT22;21906;50.812;7.132;2023-04-24T04:06:29;11.70;61.20
4107;DHT22;21906;50.812;7.132;2023-04-24T04:08:56;11.70;61.30
4107;DHT22;21906;50.812;7.132;2023-04-24T04:11:22;11.70;61.50
4107;DHT22;21906;50.812;7.132;2023-04-24T04:13:48;11.70;61.00
4107;DHT22;21906;50.812;7.132;2023-04-24T04:16:13;11.70;61.00
4107;DHT22;21906;50.812;7.132;2023-04-24T04:18:39;11.70;61.10
4107;DHT22;21906;50.812;7.132;2023-04-24T04:21:05;11.60;61.60
4107;DHT22;21906;50.812;7.132;2023-04-24T04:23:30;11.70;61.50
4107;DHT22;21906;50.812;7.132;2023-04-24T04:25:57;11.70;61.30
4107;DHT22;21906;50.812;7.132;2023-04-24T04:28:23;11.70;61.30
4107;DHT22;21906;50.812;7.132;2023-04-24T04:30:50;11.60;61.80
4107;DHT22;21906;50.812;7.132;2023-04-24T04:33:19;11.70;62.10
4107;DHT22;21906;50.812;7.132;2023-04-24T04:35:45;11.80;62.00
4107;DHT22;21906;50.812;7.132;2023-04-24T04:38:14;11.80;61.90
4107;DHT22;21906;50.812;7.132;2023-04-24T04:40:40;11.90;61.80
4107;DHT22;21906;50.812;7.132;2023-04-24T04:43:06;11.80;61.30
4107;DHT22;21906;50.812;7.132;2023-04-24T04:45:31;11.90;61.90
4107;DHT22;21906;50.812;7.132;2023-04-24T04:47:58;11.90;61.40
4107;DHT22;21906;50.812;7.132;2023-04-24T04:50:26;11.90;61.30
4107;DHT22;21906;50.812;7.132;2023-04-24T04:52:52;11.90;61.30
4107;DHT22;21906;50.812;7.132;2023-04-24T04:55:18;11.90;61.50
4107;DHT22;21906;50.812;7.132;2023-04-24T04:57:45;11.90;61.50
4107;DHT22;21906;50.812;7.132;2023-04-24T05:00:11;11.90;61.40
4107;DHT22;21906;50.812;7.132;2023-04-24T05:02:40;12.00;61.70
4107;DHT22;21906;50.812;7.132;2023-04-24T05:05:06;12.00;61.30
4107;DHT22;21906;50.812;7.132;2023-04-24T05:07:32;12.00;61.10
4107;DHT22;21906;50.812;7.132;2023-04-24T05:09:58;12.00;61.10
4107;DHT22;21906;50.812;7.132;2023-04-24T05:12:24;12.10;61.30
4107;DHT22;21906;50.812;7.132;2023-04-24T05:14:49;12.10;61.30
4107;DHT22;21906;50.812;7.132;2023-04-24T05:17:15;12.10;61.70
4107;DHT22;21906;50.812;7.132;2023-04-24T05:19:41;12.10;61.90
4107;DHT22;21906;50.812;7.132;2023-04-24T05:22:08;12.00;62.30
4107;DHT22;21906;50.812;7.132;2023-04-24T05:24:35;12.00;62.30
4107;DHT22;21906;50.812;7.132;2023-04-24T05:27:05;12.00;62.30
4107;DHT22;21906;50.812;7.132;2023-04-24T05:29:31;12.00;62.30
4107;DHT22;21906;50.812;7.132;2023-04-24T05:31:58;12.10;62.10
4107;DHT22;21906;50.812;7.132;2023-04-24T05:34:24;12.20;61.90
4107;DHT22;21906;50.812;7.132;2023-04-24T05:36:50;12.10;61.90
4107;DHT22;21906;50.812;7.132;2023-04-24T05:39:16;12.10;61.60
4107;DHT22;21906;50.812;7.132;2023-04-24T05:41:42;12.20;61.90
4107;DHT22;21906;50.812;7.132;2023-04-24T05:44:08;12.20;61.90
4107;DHT22;21906;50.812;7.132;2023-04-24T05:46:34;12.20;61.70
4107;DHT22;21906;50.812;7.132;2023-04-24T05:48:59;12.20;61.80
4107;DHT22;21906;50.812;7.132;2023-04-24T05:51:25;12.20;61.80
4107;DHT22;21906;50.812;7.132;2023-04-24T05:53:51;12.20;61.50
4107;DHT22;21906;50.812;7.132;2023-04-24T05:56:17;12.20;61.90
4107;DHT22;21906;50.812;7.132;2023-04-24T05:58:43;12.20;61.80
4107;DHT22;21906;50.812;7.132;2023-04-24T06:01:09;12.10;61.50
4107;DHT22;21906;50.812;7.132;2023-04-24T06:03:35;12.10;61.80
4107;DHT22;21906;50.812;7.132;2023-04-24T06:06:00;12.10;61.90
4107;DHT22;21906;50.812;7.132;2023-04-24T06:08:26;12.10;62.20
4107;DHT22;21906;50.812;7.132;2023-04-24T06:10:51;12.10;62.40
4107;DHT22;21906;50.812;7.132;2023-04-24T06:13:17;12.10;62.20
4107;DHT22;21906;50.812;7.132;2023-04-24T06:15:43;12.20;62.20
4107;DHT22;21906;50.812;7.132;2023-04-24T06:18:09;12.20;62.10
4107;DHT22;21906;50.812;7.132;2023-04-24T06:20:38;12.20;62.00
4107;DHT22;21906;50.812;7.132;2023-04-24T06:23:04;12.20;62.10
4107;DHT22;21906;50.812;7.132;2023-04-24T06:25:29;12.20;62.50
4107;DHT22;21906;50.812;7.132;2023-04-24T06:27:56;12.20;62.30
4107;DHT22;21906;50.812;7.132;2023-04-24T06:30:22;12.20;62.20
4107;DHT22;21906;50.812;7.132;2023-04-24T06:32:48;12.20;62.10
4107;DHT22;21906;50.812;7.132;2023-04-24T06:35:13;12.20;62.80
4107;DHT22;21906;50.812;7.132;2023-04-24T06:37:41;12.30;63.90
4107;DHT22;21906;50.812;7.132;2023-04-24T06:40:07;12.30;63.70
4107;DHT22;21906;50.812;7.132;2023-04-24T06:42:33;12.40;64.40
4107;DHT22;21906;50.812;7.132;2023-04-24T06:44:59;12.30;65.00
4107;DHT22;21906;50.812;7.132;2023-04-24T06:47:25;12.30;65.40
4107;DHT22;21906;50.812;7.132;2023-04-24T06:49:50;12.30;65.70
4107;DHT22;21906;50.812;7.132;2023-04-24T06:52:18;12.30;66.10
4107;DHT22;21906;50.812;7.132;2023-04-24T06:54:43;12.40;66.80
4107;DHT22;21906;50.812;7.132;2023-04-24T06:57:09;12.40;66.30
4107;DHT22;21906;50.812;7.132;2023-04-24T06:59:36;12.30;66.60
4107;DHT22;21906;50.812;7.132;2023-04-24T07:02:01;12.20;67.60
4107;DHT22;21906;50.812;7.132;2023-04-24T07:04:28;12.10;67.90
4107;DHT22;21906;50.812;7.132;2023-04-24T07:06:54;12.00;68.30
4107;DHT22;21906;50.812;7.132;2023-04-24T07:09:21;12.10;68.10
4107;DHT22;21906;50.812;7.132;2023-04-24T07:11:47;11.90;67.40
4107;DHT22;21906;50.812;7.132;2023-04-24T07:14:13;11.90;68.40
4107;DHT22;21906;50.812;7.132;2023-04-24T07:16:39;11.90;69.00
4107;DHT22;21906;50.812;7.132;2023-04-24T07:19:05;11.70;69.50
4107;DHT22;21906;50.812;7.132;2023-04-24T07:21:30;11.50;70.80
4107;DHT22;21906;50.812;7.132;2023-04-24T07:23:57;11.60;70.10
4107;DHT22;21906;50.812;7.132;2023-04-24T07:26:23;11.50;70.90
4107;DHT22;21906;50.812;7.132;2023-04-24T07:28:49;11.60;70.50
4107;DHT22;21906;50.812;7.132;2023-04-24T07:31:14;11.60;69.70
4107;DHT22;21906;50.812;7.132;2023-04-24T07:33:40;11.50;69.60
4107;DHT22;21906;50.812;7.132;2023-04-24T07:36:06;11.40;71.30
4107;DHT22;21906;50.812;7.132;2023-04-24T07:38:31;11.20;71.70
4107;DHT22;21906;50.812;7.132;2023-04-24T07:40:57;11.20;71.70
4107;DHT22;21906;50.812;7.132;2023-04-24T07:43:23;11.40;70.30
4107;DHT22;21906;50.812;7.132;2023-04-24T07:45:50;11.20;71.20
4107;DHT22;21906;50.812;7.132;2023-04-24T07:48:16;11.20;72.00
4107;DHT22;21906;50.812;7.132;2023-04-24T07:50:43;11.30;72.00
4107;DHT22;21906;50.812;7.132;2023-04-24T07:53:09;11.30;71.70
4107;DHT22;21906;50.812;7.132;2023-04-24T07:55:35;11.30;71.80
4107;DHT22;21906;50.812;7.132;2023-04-24T07:58:01;11.30;72.90
4107;DHT22;21906;50.812;7.132;2023-04-24T08:00:26;11.10;73.00
4107;DHT22;21906;50.812;7.132;2023-04-24T08:02:52;11.10;74.00
4107;DHT22;21906;50.812;7.132;2023-04-24T08:05:18;11.10;73.60
4107;DHT22;21906;50.812;7.132;2023-04-24T08:07:45;11.10;74.60
4107;DHT22;21906;50.812;7.132;2023-04-24T08:10:11;10.90;74.70
4107;DHT22;21906;50.812;7.132;2023-04-24T08:12:37;10.90;74.40
4107;DHT22;21906;50.812;7.132;2023-04-24T08:15:04;11.00;75.00
4107;DHT22;21906;50.812;7.132;2023-04-24T08:17:30;11.00;75.00
4107;DHT22;21906;50.812;7.132;2023-04-24T08:19:56;10.90;75.30
4107;DHT22;21906;50.812;7.132;2023-04-24T08:22:27;11.00;74.30
4107;DHT22;21906;50.812;7.132;2023-04-24T08:24:53;10.90;74.30
4107;DHT22;21906;50.812;7.132;2023-04-24T08:27:19;10.90;74.40
4107;DHT22;21906;50.812;7.132;2023-04-24T08:29:44;10.80;74.00
4107;DHT22;21906;50.812;7.132;2023-04-24T08:32:10;10.90;74.60
4107;DHT22;21906;50.812;7.132;2023-04-24T08:34:35;10.70;74.30
4107;DHT22;21906;50.812;7.132;2023-04-24T08:37:02;10.70;74.80
4107;DHT22;21906;50.812;7.132;2023-04-24T08:39:27;10.60;75.10
4107;DHT22;21906;50.812;7.132;2023-04-24T08:41:53;10.60;75.70
4107;DHT22;21906;50.812;7.132;2023-04-24T08:44:19;10.70;74.80
4107;DHT22;21906;50.812;7.132;2023-04-24T08:46:47;10.50;75.90
4107;DHT22;21906;50.812;7.132;2023-04-24T08:49:14;10.40;75.20
4107;DHT22;21906;50.812;7.132;2023-04-24T08:51:42;10.10;75.90
4107;DHT22;21906;50.812;7.132;2023-04-24T08:54:08;10.10;74.10
4107;DHT22;21906;50.812;7.132;2023-04-24T08:56:34;9.90;74.70
4107;DHT22;21906;50.812;7.132;2023-04-24T08:59:04;9.80;75.30
4107;DHT22;21906;50.812;7.132;2023-04-24T09:01:32;9.70;75.00
4107;DHT22;21906;50.812;7.132;2023-04-24T09:04:01;9.40;76.30
4107;DHT22;21906;50.812;7.132;2023-04-24T09:06:27;9.40;76.80
4107;DHT22;21906;50.812;7.132;2023-04-24T09:08:54;9.30;77.50
4107;DHT22;21906;50.812;7.132;2023-04-24T09:11:21;9.40;76.90
4107;DHT22;21906;50.812;7.132;2023-04-24T09:13:49;9.40;77.00
4107;DHT22;21906;50.812;7.132;2023-04-24T09:16:15;9.40;77.00
4107;DHT22;21906;50.812;7.132;2023-04-24T09:18:41;9.50;77.00
4107;DHT22;21906;50.812;7.132;2023-04-24T09:21:10;9.60;77.00
4107;DHT22;21906;50.812;7.132;2023-04-24T09:23:35;9.60;76.50
4107;DHT22;21906;50.812;7.132;2023-04-24T09:26:03;9.50;77.50
4107;DHT22;21906;50.812;7.132;2023-04-24T09:28:37;9.60;77.20
4107;DHT22;21906;50.812;7.132;2023-04-24T09:31:15;9.50;78.10
4107;DHT22;21906;50.812;7.132;2023-04-24T09:34:05;9.60;77.10
4107;DHT22;21906;50.812;7.132;2023-04-24T09:36:42;9.50;78.10
4107;DHT22;21906;50.812;7.132;2023-04-24T09:39:09;9.50;78.30
4107;DHT22;21906;50.812;7.132;2023-04-24T09:41:47;9.60;78.30
4107;DHT22;21906;50.812;7.132;2023-04-24T09:44:13;9.70;78.00
4107;DHT22;21906;50.812;7.132;2023-04-24T09:46:41;9.80;78.10
4107;DHT22;21906;50.812;7.132;2023-04-24T09:49:15;9.90;78.40
4107;DHT22;21906;50.812;7.132;2023-04-24T09:51:42;9.90;78.10
4107;DHT22;21906;50.812;7.132;2023-04-24T09:54:23;10.00;78.10
4107;DHT22;21906;50.812;7.132;2023-04-24T09:56:51;10.00;78.40
4107;DHT22;21906;50.812;7.132;2023-04-24T09:59:18;10.10;78.30
4107;DHT22;21906;50.812;7.132;2023-04-24T10:01:44;10.10;78.00
4107;DHT22;21906;50.812;7.132;2023-04-24T10:04:23;10.00;78.30
4107;DHT22;21906;50.812;7.132;2023-04-24T10:06:51;10.10;77.70
4107;DHT22;21906;50.812;7.132;2023-04-24T10:09:18;10.10;76.70
4107;DHT22;21906;50.812;7.132;2023-04-24T10:11:46;10.20;77.00
4107;DHT22;21906;50.812;7.132;2023-04-24T10:14:19;10.10;77.40
4107;DHT22;21906;50.812;7.132;2023-04-24T10:16:46;10.00;78.40
4107;DHT22;21906;50.812;7.132;2023-04-24T10:19:12;10.10;78.50
4107;DHT22;21906;50.812;7.132;2023-04-24T10:21:40;10.20;79.10
4107;DHT22;21906;50.812;7.132;2023-04-24T10:24:16;10.40;76.90
4107;DHT22;21906;50.812;7.132;2023-04-24T10:26:43;10.40;76.30
4107;DHT22;21906;50.812;7.132;2023-04-24T10:29:10;10.40;76.60
4107;DHT22;21906;50.812;7.132;2023-04-24T10:31:38;10.40;77.30
4107;DHT22;21906;50.812;7.132;2023-04-24T10:34:08;10.50;77.40
4107;DHT22;21906;50.812;7.132;2023-04-24T10:36:35;10.50;77.00
4107;DHT22;21906;50.812;7.132;2023-04-24T10:39:03;10.70;77.50
4107;DHT22;21906;50.812;7.132;2023-04-24T10:41:31;10.80;76.50
4107;DHT22;21906;50.812;7.132;2023-04-24T10:44:27;10.80;76.50
4107;DHT22;21906;50.812;7.132;2023-04-24T10:47:01;10.80;75.60
4107;DHT22;21906;50.812;7.132;2023-04-24T10:49:30;10.90;75.20
4107;DHT22;21906;50.812;7.132;2023-04-24T10:52:01;10.90;74.30
4107;DHT22;21906;50.812;7.132;2023-04-24T10:54:28;11.00;75.40
4107;DHT22;21906;50.812;7.132;2023-04-24T11:00:20;11.20;76.10
4107;DHT22;21906;50.812;7.132;2023-04-24T11:02:47;11.30;76.00
4107;DHT22;21906;50.812;7.132;2023-04-24T11:05:19;11.40;75.90
4107;DHT22;21906;50.812;7.132;2023-04-24T11:08:14;11.50;75.70
4107;DHT22;21906;50.812;7.132;2023-04-24T11:10:45;11.40;73.80
4107;DHT22;21906;50.812;7.132;2023-04-24T11:13:17;11.40;73.50
4107;DHT22;21906;50.812;7.132;2023-04-24T11:16:12;11.40;73.00
4107;DHT22;21906;50.812;7.132;2023-04-24T11:18:39;11.40;72.30
4107;DHT22;21906;50.812;7.132;2023-04-24T11:21:16;11.50;72.70
4107;DHT22;21906;50.812;7.132;2023-04-24T11:23:42;11.50;73.80
4107;DHT22;21906;50.812;7.132;2023-04-24T11:26:12;11.50;74.00
4107;DHT22;21906;50.812;7.132;2023-04-24T11:28:45;11.40;73.90
4107;DHT22;21906;50.812;7.132;2023-04-24T11:31:39;11.30;75.30
4107;DHT22;21906;50.812;7.132;2023-04-24T11:34:08;11.30;74.80
4107;DHT22;21906;50.812;7.132;2023-04-24T11:36:35;11.20;75.80
4107;DHT22;21906;50.812;7.132;2023-04-24T11:39:01;11.10;76.60
4107;DHT22;21906;50.812;7.132;2023-04-24T11:41:27;11.00;76.30
4107;DHT22;21906;50.812;7.132;2023-04-24T11:43:53;11.00;77.60
4107;DHT22;21906;50.812;7.132;2023-04-24T11:46:21;11.00;78.70
4107;DHT22;21906;50.812;7.132;2023-04-24T11:48:47;10.90;78.90
4107;DHT22;21906;50.812;7.132;2023-04-24T11:51:13;11.00;78.70
4107;DHT22;21906;50.812;7.132;2023-04-24T11:53:39;11.00;78.00
4107;DHT22;21906;50.812;7.132;2023-04-24T11:56:05;11.00;77.60
4107;DHT22;21906;50.812;7.132;2023-04-24T11:58:38;11.00;77.70
4107;DHT22;21906;50.812;7.132;2023-04-24T12:01:05;11.10;78.00
4107;DHT22;21906;50.812;7.132;2023-04-24T12:03:31;11.40;76.60
4107;DHT22;21906;50.812;7.132;2023-04-24T12:06:06;11.60;75.50
4107;DHT22;21906;50.812;7.132;2023-04-24T12:08:35;11.80;74.80
4107;DHT22;21906;50.812;7.132;2023-04-24T12:11:02;12.00;73.80
4107;DHT22;21906;50.812;7.132;2023-04-24T12:13:28;12.10;73.30
4107;DHT22;21906;50.812;7.132;2023-04-24T12:15:54;12.30;72.80
4107;DHT22;21906;50.812;7.132;2023-04-24T12:18:24;12.50;70.90
4107;DHT22;21906;50.812;7.132;2023-04-24T12:20:50;12.50;71.00
4107;DHT22;21906;50.812;7.132;2023-04-24T12:23:16;12.60;69.60
4107;DHT22;21906;50.812;7.132;2023-04-24T12:25:43;12.50;70.50
4107;DHT22;21906;50.812;7.132;2023-04-24T12:28:12;12.40;71.40
4107;DHT22;21906;50.812;7.132;2023-04-24T12:30:43;12.40;71.00
4107;DHT22;21906;50.812;7.132;2023-04-24T12:33:11;12.40;71.80
4107;DHT22;21906;50.812;7.132;2023-04-24T12:35:37;12.40;72.20
4107;DHT22;21906;50.812;7.132;2023-04-24T12:38:06;12.40;71.60
4107;DHT22;21906;50.812;7.132;2023-04-24T12:40:33;12.40;70.00
4107;DHT22;21906;50.812;7.132;2023-04-24T12:42:59;12.40;70.60
4107;DHT22;21906;50.812;7.132;2023-04-24T12:45:24;12.30;70.80
4107;DHT22;21906;50.812;7.132;2023-04-24T12:47:50;12.10;71.10
4107;DHT22;21906;50.812;7.132;2023-04-24T12:50:16;12.10;71.40
4107;DHT22;21906;50.812;7.132;2023-04-24T12:52:42;12.10;71.10
4107;DHT22;21906;50.812;7.132;2023-04-24T12:55:09;12.20;70.40
4107;DHT22;21906;50.812;7.132;2023-04-24T12:57:37;12.10;70.90
4107;DHT22;21906;50.812;7.132;2023-04-24T13:00:04;12.40;72.70
4107;DHT22;21906;50.812;7.132;2023-04-24T13:02:30;12.60;73.20
4107;DHT22;21906;50.812;7.132;2023-04-24T13:04:58;13.00;71.50
4107;DHT22;21906;50.812;7.132;2023-04-24T13:07:24;13.50;67.70
4107;DHT22;21906;50.812;7.132;2023-04-24T13:09:51;13.90;66.90
4107;DHT22;21906;50.812;7.132;2023-04-24T13:12:17;14.30;65.30
4107;DHT22;21906;50.812;7.132;2023-04-24T13:14:43;14.50;64.50
4107;DHT22;21906;50.812;7.132;2023-04-24T13:17:09;15.00;63.10
4107;DHT22;21906;50.812;7.132;2023-04-24T13:19:42;15.20;58.20
4107;DHT22;21906;50.812;7.132;2023-04-24T13:22:10;14.90;58.20
4107;DHT22;21906;50.812;7.132;2023-04-24T13:24:37;14.80;57.80
4107;DHT22;21906;50.812;7.132;2023-04-24T13:27:03;14.70;59.50
4107;DHT22;21906;50.812;7.132;2023-04-24T13:29:29;14.40;59.30
4107;DHT22;21906;50.812;7.132;2023-04-24T13:31:55;14.40;58.30
4107;DHT22;21906;50.812;7.132;2023-04-24T13:34:25;14.30;57.60
4107;DHT22;21906;50.812;7.132;2023-04-24T13:36:55;14.30;59.00
4107;DHT22;21906;50.812;7.132;2023-04-24T13:39:22;14.20;59.60
4107;DHT22;21906;50.812;7.132;2023-04-24T13:41:47;14.00;61.00
4107;DHT22;21906;50.812;7.132;2023-04-24T13:44:14;13.90;61.40
4107;DHT22;21906;50.812;7.132;2023-04-24T13:46:40;13.50;61.40
4107;DHT22;21906;50.812;7.132;2023-04-24T13:49:06;13.50;61.50
4107;DHT22;21906;50.812;7.132;2023-04-24T13:51:32;13.50;61.40
4107;DHT22;21906;50.812;7.132;2023-04-24T13:53:58;13.70;61.80
4107;DHT22;21906;50.812;7.132;2023-04-24T13:56:25;14.20;61.00
4107;DHT22;21906;50.812;7.132;2023-04-24T13:58:51;14.50;60.60
4107;DHT22;21906;50.812;7.132;2023-04-24T14:01:16;14.50;57.40
4107;DHT22;21906;50.812;7.132;2023-04-24T14:03:42;14.50;56.80
4107;DHT22;21906;50.812;7.132;2023-04-24T14:06:11;14.20;57.90
4107;DHT22;21906;50.812;7.132;2023-04-24T14:08:36;14.00;58.60
4107;DHT22;21906;50.812;7.132;2023-04-24T14:11:02;13.90;59.10
4107;DHT22;21906;50.812;7.132;2023-04-24T14:13:28;13.80;59.60
4107;DHT22;21906;50.812;7.132;2023-04-24T14:15:54;13.60;59.20
4107;DHT22;21906;50.812;7.132;2023-04-24T14:18:20;13.80;59.70
4107;DHT22;21906;50.812;7.132;2023-04-24T14:20:46;13.70;59.20
4107;DHT22;21906;50.812;7.132;2023-04-24T14:23:11;13.90;58.40
4107;DHT22;21906;50.812;7.132;2023-04-24T14:25:37;14.30;58.80
4107;DHT22;21906;50.812;7.132;2023-04-24T14:28:02;14.70;57.50
4107;DHT22;21906;50.812;7.132;2023-04-24T14:30:28;15.30;55.90
4107;DHT22;21906;50.812;7.132;2023-04-24T14:32:54;15.80;53.50
4107;DHT22;21906;50.812;7.132;2023-04-24T14:35:19;16.20;54.80
4107;DHT22;21906;50.812;7.132;2023-04-24T14:37:45;16.60;52.60
4107;DHT22;21906;50.812;7.132;2023-04-24T14:40:11;16.40;50.90
4107;DHT22;21906;50.812;7.132;2023-04-24T14:42:37;16.50;51.00
4107;DHT22;21906;50.812;7.132;2023-04-24T14:45:03;16.90;49.70
4107;DHT22;21906;50.812;7.132;2023-04-24T14:47:28;17.50;48.30
4107;DHT22;21906;50.812;7.132;2023-04-24T14:49:54;17.90;47.40
4107;DHT22;21906;50.812;7.132;2023-04-24T14:52:20;18.10;45.30
4107;DHT22;21906;50.812;7.132;2023-04-24T14:54:46;18.50;45.70
4107;DHT22;21906;50.812;7.132;2023-04-24T14:57:12;18.50;44.40
4107;DHT22;21906;50.812;7.132;2023-04-24T14:59:38;18.50;44.80
4107;DHT22;21906;50.812;7.132;2023-04-24T15:02:03;18.10;42.80
4107;DHT22;21906;50.812;7.132;2023-04-24T15:04:29;18.30;42.80
4107;DHT22;21906;50.812;7.132;2023-04-24T15:06:56;18.40;43.20
4107;DHT22;21906;50.812;7.132;2023-04-24T15:09:22;18.90;43.50
4107;DHT22;21906;50.812;7.132;2023-04-24T15:11:49;19.10;41.20
4107;DHT22;21906;50.812;7.132;2023-04-24T15:14:15;19.90;41.80
4107;DHT22;21906;50.812;7.132;2023-04-24T15:16:41;20.60;40.60
4107;DHT22;21906;50.812;7.132;2023-04-24T15:19:07;21.10;39.00
4107;DHT22;21906;50.812;7.132;2023-04-24T15:21:33;21.00;39.70
4107;DHT22;21906;50.812;7.132;2023-04-24T15:23:58;20.40;39.40
4107;DHT22;21906;50.812;7.132;2023-04-24T15:26:25;19.60;42.00
4107;DHT22;21906;50.812;7.132;2023-04-24T15:28:51;18.90;42.60
4107;DHT22;21906;50.812;7.132;2023-04-24T15:31:17;19.40;42.80
4107;DHT22;21906;50.812;7.132;2023-04-24T15:33:43;20.10;40.70
4107;DHT22;21906;50.812;7.132;2023-04-24T15:36:09;20.30;39.40
4107;DHT22;21906;50.812;7.132;2023-04-24T15:38:35;20.10;40.40
4107;DHT22;21906;50.812;7.132;2023-04-24T15:41:01;19.50;42.10
4107;DHT22;21906;50.812;7.132;2023-04-24T15:43:27;19.00;42.50
4107;DHT22;21906;50.812;7.132;2023-04-24T15:45:56;18.60;42.90
4107;DHT22;21906;50.812;7.132;2023-04-24T15:48:22;18.40;43.60